Time;durP1;ratioP1;P1;durP2;ratioP2;P2;SDS_P1;SDS_P2;PMS_P1;PMS_P2;Temp;Humidity;BMP_temperature;BMP_pressure;BME280_temperature;BME280_humidity;BME280_pressure;Samples;Min_cycle;Max_cycle;Signal;HPM_P1;HPM_P2
2023/09/19 00:00:06;;;;;;;0.63;0.60;;;14.60;99.90;;;;;;5034743;28;20033;-65
2023/09/19 00:02:33;;;;;;;1.13;0.70;;;14.50;99.90;;;;;;5034514;28;20049;-68
2023/09/19 00:04:58;;;;;;;2.00;1.08;;;14.50;99.90;;;;;;5034647;28;20064;-68
2023/09/19 00:07:24;;;;;;;0.57;0.50;;;14.50;99.90;;;;;;5034662;28;20041;-69
2023/09/19 00:09:50;;;;;;;1.35;0.60;;;14.40;99.90;;;;;;5034539;28;20038;-67
2023/09/19 00:12:15;;;;;;;2.65;1.02;;;14.40;99.90;;;;;;5034487;28;20116;-68
2023/09/19 00:14:41;;;;;;;1.13;0.63;;;14.40;99.90;;;;;;5034395;28;20119;-68
2023/09/19 00:17:08;;;;;;;1.85;0.77;;;14.30;99.90;;;;;;5034065;28;20077;-68
2023/09/19 00:19:37;;;;;;;1.15;1.00;;;14.30;99.90;;;;;;5034055;28;20438;-67
2023/09/19 00:22:04;;;;;;;1.30;0.77;;;14.20;99.90;;;;;;5016336;28;20448;-67
2023/09/19 00:24:30;;;;;;;0.75;0.70;;;14.20;99.90;;;;;;5034035;28;20120;-67
2023/09/19 00:26:58;;;;;;;0.82;0.80;;;14.20;99.90;;;;;;5016497;28;20052;-67
2023/09/19 00:29:28;;;;;;;1.60;0.82;;;14.10;99.90;;;;;;5034017;28;20060;-67
2023/09/19 00:31:56;;;;;;;1.73;0.65;;;14.10;99.90;;;;;;5034091;28;20443;-67
2023/09/19 00:34:22;;;;;;;1.33;1.00;;;14.10;99.90;;;;;;5016102;28;20048;-63
2023/09/19 00:36:48;;;;;;;3.00;1.27;;;14.30;99.90;;;;;;5016077;28;20128;-63
2023/09/19 00:39:13;;;;;;;1.77;1.00;;;14.00;99.90;;;;;;5034012;28;20075;-63
2023/09/19 00:41:40;;;;;;;1.35;0.80;;;13.90;99.90;;;;;;5033644;28;20057;-63
2023/09/19 00:44:06;;;;;;;1.58;0.93;;;13.90;99.90;;;;;;5033859;28;20131;-65
2023/09/19 00:46:35;;;;;;;2.10;1.42;;;13.80;99.90;;;;;;5033920;28;20461;-63
2023/09/19 00:49:01;;;;;;;1.15;0.60;;;13.90;99.90;;;;;;5033851;28;20037;-64
2023/09/19 00:51:27;;;;;;;2.80;1.15;;;13.80;99.90;;;;;;5033773;28;20079;-63
2023/09/19 00:53:53;;;;;;;1.35;0.80;;;13.80;99.90;;;;;;5033732;28;20049;-64
2023/09/19 00:56:20;;;;;;;2.90;1.17;;;13.80;99.90;;;;;;5033711;28;20064;-64
2023/09/19 00:58:47;;;;;;;1.73;1.00;;;13.70;99.90;;;;;;5033626;28;20046;-63
2023/09/19 01:01:14;;;;;;;1.10;0.77;;;13.70;99.90;;;;;;5015951;28;20420;-64
2023/09/19 01:03:41;;;;;;;1.45;1.05;;;13.70;99.90;;;;;;5033635;28;20060;-64
2023/09/19 01:06:08;;;;;;;2.05;1.05;;;13.70;99.90;;;;;;5033568;28;20409;-64
2023/09/19 01:08:35;;;;;;;0.88;0.68;;;13.60;99.90;;;;;;5015892;28;20052;-64
2023/09/19 01:11:18;;;;;;;1.27;0.70;;;13.60;99.90;;;;;;5015430;28;20038;-64
2023/09/19 01:14:21;;;;;;;1.55;1.05;;;13.60;99.90;;;;;;5033459;28;20041;-64
2023/09/19 01:16:50;;;;;;;0.95;0.85;;;13.60;99.90;;;;;;5023975;28;20084;-64
2023/09/19 01:19:43;;;;;;;1.25;1.00;;;13.50;99.90;;;;;;5033100;28;20049;-64
2023/09/19 01:22:21;;;;;;;1.35;1.25;;;13.50;99.90;;;;;;5033002;28;20056;-64
2023/09/19 01:25:08;;;;;;;1.25;0.70;;;13.50;99.90;;;;;;5033340;28;20558;-64
2023/09/19 01:28:06;;;;;;;1.45;0.95;;;13.50;99.90;;;;;;5033251;28;20040;-64
2023/09/19 01:30:36;;;;;;;1.90;1.23;;;13.50;99.90;;;;;;5032922;28;20042;-64
2023/09/19 01:33:03;;;;;;;1.02;0.93;;;13.50;99.90;;;;;;5014413;28;20044;-65
2023/09/19 01:35:29;;;;;;;2.45;1.02;;;13.50;99.90;;;;;;5032888;28;20037;-64
2023/09/19 01:37:55;;;;;;;1.90;1.33;;;13.50;99.90;;;;;;5033144;28;20040;-64
2023/09/19 01:40:22;;;;;;;2.05;1.02;;;13.50;99.90;;;;;;5033102;28;20040;-65
2023/09/19 01:42:59;;;;;;;3.63;1.40;;;13.50;99.90;;;;;;5033173;28;20037;-64
2023/09/19 01:45:34;;;;;;;0.63;0.63;;;13.50;99.90;;;;;;5033098;28;20489;-64
2023/09/19 01:48:31;;;;;;;1.83;1.10;;;13.50;99.90;;;;;;5032949;28;20081;-65
2023/09/19 01:51:06;;;;;;;2.08;1.15;;;13.40;99.90;;;;;;5029385;28;20051;-65
2023/09/19 01:53:51;;;;;;;1.10;0.73;;;13.40;99.90;;;;;;5033042;28;20069;-65
2023/09/19 01:56:25;;;;;;;2.15;1.10;;;13.40;99.90;;;;;;5032959;28;20056;-67
2023/09/19 01:58:56;;;;;;;1.77;1.15;;;13.40;99.90;;;;;;5032892;28;20076;-64
2023/09/19 02:01:23;;;;;;;;;;;13.40;99.90;;;;;;5032992;28;20041;-64
2023/09/19 02:03:50;;;;;;;1.90;0.80;;;13.30;99.90;;;;;;5032901;28;20003;-64
2023/09/19 02:06:17;;;;;;;1.92;1.13;;;13.40;99.90;;;;;;5014935;28;20077;-64
2023/09/19 02:08:44;;;;;;;1.77;0.95;;;13.30;99.90;;;;;;5032860;28;20045;-64
2023/09/19 02:11:10;;;;;;;1.92;1.00;;;13.30;99.90;;;;;;5032531;28;20041;-64
2023/09/19 02:13:37;;;;;;;2.22;1.00;;;13.30;99.90;;;;;;5032803;28;20037;-64
2023/09/19 02:16:04;;;;;;;1.33;0.80;;;13.30;99.90;;;;;;5032568;28;20067;-64
2023/09/19 02:18:30;;;;;;;1.60;0.90;;;13.20;99.90;;;;;;5014808;28;20120;-64
2023/09/19 02:20:58;;;;;;;2.05;1.00;;;13.20;99.90;;;;;;5032516;28;20124;-64
2023/09/19 02:23:24;;;;;;;1.17;0.95;;;13.20;99.90;;;;;;5032839;28;20037;-64
2023/09/19 02:25:53;;;;;;;2.08;1.25;;;13.20;99.90;;;;;;5014792;28;20045;-64
2023/09/19 02:28:19;;;;;;;1.38;1.27;;;13.20;99.90;;;;;;5032698;28;20041;-64
2023/09/19 02:30:48;;;;;;;1.88;1.00;;;13.20;99.90;;;;;;5032619;28;20495;-64
2023/09/19 02:33:14;;;;;;;4.63;1.60;;;13.10;99.90;;;;;;5032739;28;20045;-63
2023/09/19 02:35:40;;;;;;;1.40;1.13;;;13.10;99.90;;;;;;5032343;28;20039;-63
2023/09/19 02:38:07;;;;;;;1.48;1.08;;;13.10;99.90;;;;;;5032622;28;20033;-63
2023/09/19 02:40:35;;;;;;;1.55;1.17;;;13.10;99.90;;;;;;5032321;28;20095;-62
2023/09/19 02:43:01;;;;;;;3.03;1.33;;;13.10;99.90;;;;;;5032943;28;20125;-62
2023/09/19 02:45:27;;;;;;;1.60;0.95;;;13.10;99.90;;;;;;5036206;28;20041;-62
2023/09/19 02:47:54;;;;;;;1.83;1.20;;;13.10;99.90;;;;;;5036125;28;20362;-63
2023/09/19 02:50:20;;;;;;;1.13;0.95;;;13.60;99.90;;;;;;5036092;28;20052;-62
2023/09/19 02:52:48;;;;;;;0.88;0.80;;;13.10;99.90;;;;;;5036048;28;20370;-71
2023/09/19 02:55:19;;;;;;;1.75;1.00;;;13.10;99.90;;;;;;5018233;28;20052;-71
2023/09/19 02:57:49;;;;;;;1.58;0.70;;;13.10;99.90;;;;;;5035662;28;20452;-71
2023/09/19 03:00:16;;;;;;;1.27;1.03;;;13.10;99.90;;;;;;5035924;28;20038;-70
2023/09/19 03:02:42;;;;;;;0.90;0.82;;;13.10;99.90;;;;;;5035908;28;20090;-71
2023/09/19 03:05:07;;;;;;;2.22;1.30;;;13.10;99.90;;;;;;5035750;28;20045;-70
2023/09/19 03:07:34;;;;;;;0.75;0.60;;;13.10;99.90;;;;;;5035745;28;20048;-70
2023/09/19 03:09:59;;;;;;;2.53;1.70;;;13.10;99.90;;;;;;5035674;28;20075;-70
2023/09/19 03:12:26;;;;;;;1.25;0.98;;;13.10;99.90;;;;;;5035581;28;20033;-64
2023/09/19 03:14:52;;;;;;;2.20;1.02;;;13.00;99.90;;;;;;5035368;28;20076;-66
2023/09/19 03:17:19;;;;;;;1.25;1.15;;;13.00;99.90;;;;;;5035163;28;20053;-66
2023/09/19 03:19:47;;;;;;;2.00;0.90;;;13.10;99.90;;;;;;5035712;28;20374;-66
2023/09/19 03:22:13;;;;;;;1.33;0.95;;;13.00;99.90;;;;;;5035513;28;20048;-65
2023/09/19 03:24:38;;;;;;;1.25;0.88;;;13.00;99.90;;;;;;5035371;28;20120;-66
2023/09/19 03:27:04;;;;;;;1.65;0.98;;;13.10;99.90;;;;;;5035385;28;20045;-66
2023/09/19 03:29:30;;;;;;;0.88;0.80;;;13.10;99.90;;;;;;5035436;28;20084;-65
2023/09/19 03:31:55;;;;;;;0.90;0.65;;;13.20;99.90;;;;;;5035315;28;20069;-66
2023/09/19 03:34:21;;;;;;;1.90;1.00;;;13.20;99.90;;;;;;5034958;28;20044;-66
2023/09/19 03:36:46;;;;;;;0.93;0.82;;;13.20;99.90;;;;;;5035317;28;20049;-67
2023/09/19 03:39:15;;;;;;;1.95;1.15;;;13.20;99.90;;;;;;5034923;28;20045;-67
2023/09/19 03:41:41;;;;;;;1.30;1.08;;;13.30;99.90;;;;;;5035119;28;20049;-66
2023/09/19 03:44:07;;;;;;;1.27;1.02;;;13.30;99.90;;;;;;5034888;28;20467;-65
2023/09/19 03:46:34;;;;;;;1.05;0.90;;;13.20;99.90;;;;;;5035055;28;20041;-65
2023/09/19 03:49:00;;;;;;;1.77;0.70;;;13.30;99.90;;;;;;5034967;28;20045;-65
2023/09/19 03:51:25;;;;;;;1.83;1.23;;;13.20;99.90;;;;;;5034530;28;20607;-65
2023/09/19 03:53:51;;;;;;;2.70;1.42;;;13.20;99.90;;;;;;5034868;28;20049;-65
2023/09/19 03:56:16;;;;;;;2.80;1.20;;;13.20;99.90;;;;;;5034041;28;20041;-65
2023/09/19 03:58:42;;;;;;;1.13;0.95;;;13.60;99.90;;;;;;5034759;28;20037;-65
2023/09/19 04:01:07;;;;;;;1.70;0.88;;;13.10;99.90;;;;;;5034739;28;20120;-65
2023/09/19 04:03:46;;;;;;;1.52;0.88;;;13.10;99.90;;;;;;5034450;28;20068;-66
2023/09/19 04:06:15;;;;;;;1.05;0.70;;;13.10;99.90;;;;;;5034707;28;20386;-66
2023/09/19 04:08:41;;;;;;;0.82;0.60;;;13.00;99.90;;;;;;5034570;28;20124;-67
2023/09/19 04:11:07;;;;;;;1.30;0.88;;;13.10;99.90;;;;;;5034494;28;20549;-66
2023/09/19 04:13:32;;;;;;;1.33;0.90;;;13.00;99.90;;;;;;5034263;28;20045;-66
2023/09/19 04:15:58;;;;;;;2.25;1.25;;;13.00;99.90;;;;;;5034274;28;20140;-66
2023/09/19 04:18:24;;;;;;;1.27;0.88;;;13.00;99.90;;;;;;5034473;28;20073;-66
2023/09/19 04:20:50;;;;;;;1.60;1.15;;;13.10;99.90;;;;;;5034336;28;20112;-66
2023/09/19 04:23:16;;;;;;;1.50;0.98;;;13.10;99.90;;;;;;5034381;28;20041;-66
2023/09/19 04:25:42;;;;;;;6.07;1.23;;;13.10;99.90;;;;;;5034303;28;20493;-66
2023/09/19 04:28:10;;;;;;;1.75;0.90;;;13.10;99.90;;;;;;5034189;28;20116;-66
2023/09/19 04:30:37;;;;;;;1.67;1.10;;;13.10;99.90;;;;;;5033889;28;20037;-66
2023/09/19 04:33:03;;;;;;;1.23;0.93;;;13.20;99.90;;;;;;5034021;28;20073;-66
2023/09/19 04:35:31;;;;;;;2.00;1.17;;;13.20;99.90;;;;;;5033917;28;20042;-67
2023/09/19 04:37:57;;;;;;;1.52;1.08;;;13.20;99.90;;;;;;5033613;28;20042;-67
2023/09/19 04:40:26;;;;;;;1.58;0.95;;;13.30;99.90;;;;;;5033689;28;20040;-66
2023/09/19 04:42:58;;;;;;;1.20;0.70;;;13.30;99.90;;;;;;5033828;28;20041;-66
2023/09/19 04:45:29;;;;;;;1.70;0.90;;;13.30;99.90;;;;;;5033904;28;20489;-66
2023/09/19 04:47:55;;;;;;;0.95;0.90;;;13.30;99.90;;;;;;5033847;28;20041;-66
2023/09/19 04:50:27;;;;;;;1.40;1.10;;;13.40;99.90;;;;;;5033581;28;20044;-66
2023/09/19 04:52:53;;;;;;;2.83;1.08;;;13.40;99.90;;;;;;5033889;28;20396;-64
2023/09/19 04:55:19;;;;;;;1.48;1.00;;;13.40;99.90;;;;;;5033777;28;20049;-64
2023/09/19 04:57:45;;;;;;;1.75;0.90;;;13.40;99.90;;;;;;5033694;28;20033;-65
2023/09/19 05:00:19;;;;;;;1.63;0.88;;;13.40;99.90;;;;;;5033636;28;20374;-65
2023/09/19 05:02:46;;;;;;;1.20;0.85;;;13.50;99.90;;;;;;5033628;28;20045;-65
2023/09/19 05:05:14;;;;;;;1.20;0.93;;;13.50;99.90;;;;;;5033293;28;20103;-64
2023/09/19 05:07:41;;;;;;;1.77;1.10;;;13.50;99.90;;;;;;5033396;28;20064;-65
2023/09/19 05:10:07;;;;;;;0.95;0.77;;;13.50;99.90;;;;;;5033483;28;20064;-65
2023/09/19 05:12:36;;;;;;;1.25;0.75;;;13.50;99.90;;;;;;5033492;28;20040;-65
2023/09/19 05:15:08;;;;;;;0.98;0.80;;;13.50;99.90;;;;;;5033008;28;20107;-72
2023/09/19 05:17:35;;;;;;;3.33;1.40;;;13.50;99.90;;;;;;5033426;28;20076;-73
2023/09/19 05:20:14;;;;;;;1.85;1.10;;;13.50;99.90;;;;;;5033394;28;20099;-73
2023/09/19 05:22:44;;;;;;;1.38;1.02;;;13.50;99.90;;;;;;5033257;28;20396;-72
2023/09/19 05:25:10;;;;;;;0.98;0.93;;;13.40;99.90;;;;;;5033295;28;20447;-72
2023/09/19 05:27:36;;;;;;;1.67;0.90;;;13.50;99.90;;;;;;5015285;28;20052;-72
2023/09/19 05:30:02;;;;;;;2.10;1.05;;;13.50;99.90;;;;;;5033245;28;20497;-71
2023/09/19 05:32:28;;;;;;;1.70;1.27;;;13.50;99.90;;;;;;5032835;28;20462;-71
2023/09/19 05:34:56;;;;;;;1.83;1.15;;;13.50;99.90;;;;;;5015295;28;20084;-73
2023/09/19 05:37:22;;;;;;;1.00;0.80;;;13.50;99.90;;;;;;5033175;28;20038;-72
2023/09/19 05:39:48;;;;;;;1.77;0.93;;;13.50;99.90;;;;;;5033030;28;20052;-73
2023/09/19 05:42:13;;;;;;;1.33;0.93;;;13.50;99.90;;;;;;5032991;28;20042;-73
2023/09/19 05:44:39;;;;;;;1.67;1.35;;;13.80;99.90;;;;;;5032981;28;20033;-71
2023/09/19 05:47:05;;;;;;;2.97;1.15;;;13.50;99.90;;;;;;5033002;28;20072;-72
2023/09/19 05:49:30;;;;;;;1.40;0.82;;;13.40;99.90;;;;;;5014986;28;20053;-71
2023/09/19 05:51:58;;;;;;;2.45;1.23;;;13.70;99.90;;;;;;5014929;28;20431;-71
2023/09/19 05:54:24;;;;;;;2.38;0.90;;;13.50;99.90;;;;;;5032691;28;20049;-71
2023/09/19 05:56:52;;;;;;;1.77;1.15;;;13.40;99.90;;;;;;5033021;28;20033;-72
2023/09/19 05:59:19;;;;;;;1.80;1.23;;;13.30;99.90;;;;;;5014952;28;20442;-72
2023/09/19 06:01:46;;;;;;;3.00;1.10;;;13.50;99.90;;;;;;5032905;28;20116;-67
2023/09/19 06:04:13;;;;;;;2.42;1.00;;;13.50;99.90;;;;;;5033009;28;20072;-71
2023/09/19 06:06:39;;;;;;;1.60;1.02;;;13.50;99.90;;;;;;5032486;28;20045;-72
2023/09/19 06:09:08;;;;;;;2.13;1.48;;;13.40;99.90;;;;;;5032570;28;20045;-71
2023/09/19 06:11:34;;;;;;;1.13;0.98;;;13.40;99.90;;;;;;5015103;28;20116;-74
2023/09/19 06:14:02;;;;;;;2.00;0.90;;;13.50;99.90;;;;;;5032532;28;20084;-72
2023/09/19 06:16:29;;;;;;;1.75;0.88;;;13.50;99.90;;;;;;5014661;28;20133;-72
2023/09/19 06:18:55;;;;;;;2.15;1.15;;;13.40;99.90;;;;;;5016734;28;20057;-71
2023/09/19 06:21:22;;;;;;;2.13;1.33;;;13.40;99.90;;;;;;5036606;28;20147;-70
2023/09/19 06:23:48;;;;;;;1.65;1.00;;;13.50;99.90;;;;;;5036732;28;20038;-71
2023/09/19 06:26:13;;;;;;;1.80;1.38;;;13.40;99.90;;;;;;5036581;28;20060;-71
2023/09/19 06:28:39;;;;;;;1.95;1.13;;;13.50;99.90;;;;;;5036156;28;20099;-70
2023/09/19 06:31:09;;;;;;;1.92;0.88;;;13.50;99.90;;;;;;5036116;28;20049;-72
2023/09/19 06:33:38;;;;;;;1.70;1.08;;;13.50;99.90;;;;;;5036423;28;20041;-72
2023/09/19 06:36:04;;;;;;;3.72;1.58;;;13.60;99.90;;;;;;5018357;28;20057;-74
2023/09/19 06:38:31;;;;;;;2.20;1.00;;;13.60;99.90;;;;;;5036030;28;20037;-71
2023/09/19 06:40:58;;;;;;;3.10;1.52;;;13.60;99.90;;;;;;5018419;28;20124;-72
2023/09/19 06:43:23;;;;;;;3.15;1.20;;;13.70;99.90;;;;;;5036013;28;20033;-72
2023/09/19 06:45:51;;;;;;;2.70;1.33;;;13.70;99.90;;;;;;5018050;28;20056;-73
2023/09/19 06:48:18;;;;;;;1.52;1.05;;;13.70;99.90;;;;;;5036145;28;20088;-72
2023/09/19 06:50:44;;;;;;;3.25;1.38;;;13.80;99.90;;;;;;5018362;28;20081;-73
2023/09/19 06:53:10;;;;;;;1.73;1.27;;;13.80;99.90;;;;;;5036038;28;20393;-72
2023/09/19 06:55:36;;;;;;;1.85;1.30;;;13.90;99.90;;;;;;5035797;28;20045;-71
2023/09/19 06:58:02;;;;;;;1.83;1.27;;;13.90;99.90;;;;;;5035984;28;20448;-72
2023/09/19 07:00:31;;;;;;;3.85;1.60;;;14.00;99.90;;;;;;5035945;28;20120;-71
2023/09/19 07:03:03;;;;;;;1.60;0.90;;;14.10;99.90;;;;;;5018159;28;20057;-70
2023/09/19 07:05:33;;;;;;;1.00;0.88;;;14.20;99.90;;;;;;5035838;28;20041;-70
2023/09/19 07:08:01;;;;;;;2.20;1.05;;;14.20;99.90;;;;;;5035394;28;20045;-71
2023/09/19 07:10:28;;;;;;;1.42;0.93;;;14.30;99.90;;;;;;5035740;28;20049;-70
2023/09/19 07:13:00;;;;;;;1.67;0.93;;;14.70;99.90;;;;;;5035781;28;20125;-67
2023/09/19 07:15:30;;;;;;;2.45;1.17;;;14.30;99.90;;;;;;5035463;28;20465;-67
2023/09/19 07:17:56;;;;;;;1.02;0.80;;;14.30;99.90;;;;;;5035323;28;20037;-67
2023/09/19 07:20:25;;;;;;;1.33;0.90;;;14.40;99.90;;;;;;5035575;28;20121;-67
2023/09/19 07:22:51;;;;;;;1.83;1.17;;;14.40;99.90;;;;;;5035490;28;20120;-67
2023/09/19 07:25:17;;;;;;;1.42;0.80;;;14.40;99.90;;;;;;5035172;28;20441;-67
2023/09/19 07:27:43;;;;;;;2.30;1.25;;;14.50;99.90;;;;;;5035170;28;20401;-67
2023/09/19 07:30:11;;;;;;;2.50;0.98;;;14.50;99.90;;;;;;5034071;28;20037;-67
2023/09/19 07:32:38;;;;;;;2.35;1.10;;;14.60;99.90;;;;;;5035303;28;20421;-64
2023/09/19 07:35:05;;;;;;;1.63;1.10;;;14.60;99.90;;;;;;5035295;28;20038;-63
2023/09/19 07:37:33;;;;;;;2.22;1.10;;;14.70;99.90;;;;;;5035246;28;20164;-63
2023/09/19 07:40:00;;;;;;;1.80;1.58;;;14.70;99.90;;;;;;5035078;28;20041;-63
2023/09/19 07:42:26;;;;;;;2.00;1.27;;;14.80;99.90;;;;;;5035198;28;20046;-63
2023/09/19 07:44:53;;;;;;;2.13;1.30;;;14.90;99.90;;;;;;5035024;28;20130;-63
2023/09/19 07:47:20;;;;;;;1.77;1.05;;;14.90;99.90;;;;;;5016961;28;20120;-63
2023/09/19 07:49:47;;;;;;;3.35;1.35;;;14.90;99.90;;;;;;5017256;28;20392;-63
2023/09/19 07:52:13;;;;;;;1.50;0.90;;;14.90;99.90;;;;;;5034621;28;20053;-63
2023/09/19 07:54:41;;;;;;;1.70;0.65;;;14.80;99.90;;;;;;5034598;28;20112;-65
2023/09/19 07:57:07;;;;;;;1.60;0.80;;;14.80;99.90;;;;;;5034829;28;20045;-64
2023/09/19 07:59:32;;;;;;;0.98;0.75;;;14.80;99.90;;;;;;5034818;28;20396;-63
2023/09/19 08:01:58;;;;;;;2.80;0.90;;;14.70;99.90;;;;;;5034747;28;20070;-63
2023/09/19 08:04:25;;;;;;;3.47;1.20;;;14.70;99.90;;;;;;5034437;28;20396;-64
2023/09/19 08:06:51;;;;;;;1.83;1.13;;;14.70;99.90;;;;;;5034694;28;20424;-64
2023/09/19 08:09:20;;;;;;;2.30;0.90;;;14.70;99.90;;;;;;5034623;28;20492;-64
2023/09/19 08:11:47;;;;;;;1.40;0.85;;;14.70;99.90;;;;;;5034189;28;20080;-64
2023/09/19 08:14:14;;;;;;;1.75;0.88;;;14.70;99.90;;;;;;5034310;28;20041;-63
2023/09/19 08:16:40;;;;;;;3.20;1.40;;;14.80;99.90;;;;;;5033995;28;20057;-63
2023/09/19 08:19:05;;;;;;;3.22;1.35;;;14.80;99.90;;;;;;5034246;28;20056;-64
2023/09/19 08:21:32;;;;;;;2.22;0.82;;;14.80;99.90;;;;;;5034435;28;20046;-63
2023/09/19 08:23:57;;;;;;;1.38;0.77;;;14.90;99.90;;;;;;5034176;28;20053;-64
2023/09/19 08:26:24;;;;;;;1.83;0.85;;;15.00;99.90;;;;;;5034043;28;20038;-63
2023/09/19 08:28:51;;;;;;;1.45;0.93;;;15.00;99.90;;;;;;5034017;28;20041;-64
2023/09/19 08:31:17;;;;;;;2.25;1.20;;;15.00;99.90;;;;;;5033875;28;20049;-64
2023/09/19 08:33:44;;;;;;;1.40;0.82;;;15.10;99.90;;;;;;5034110;28;20038;-63
2023/09/19 08:36:11;;;;;;;1.67;1.00;;;15.20;99.90;;;;;;5034147;28;20029;-64
2023/09/19 08:38:37;;;;;;;2.60;1.40;;;15.20;99.90;;;;;;5016144;28;20048;-63
2023/09/19 08:41:07;;;;;;;1.25;0.95;;;15.30;99.90;;;;;;5033680;28;20037;-64
2023/09/19 08:43:35;;;;;;;1.43;0.83;;;15.40;99.90;;;;;;5033793;28;20040;-67
2023/09/19 08:46:11;;;;;;;1.33;0.80;;;15.50;99.90;;;;;;5033978;28;20347;-67
2023/09/19 08:48:44;;;;;;;2.05;1.42;;;15.50;99.90;;;;;;5033919;28;20041;-68
2023/09/19 08:51:21;;;;;;;2.20;1.05;;;15.60;99.90;;;;;;5033781;28;20045;-67
2023/09/19 08:54:09;;;;;;;1.73;0.82;;;15.70;99.90;;;;;;5033470;28;20041;-68
2023/09/19 08:56:39;;;;;;;2.20;1.05;;;15.80;99.90;;;;;;5033765;28;20042;-67
2023/09/19 08:59:08;;;;;;;1.40;1.00;;;15.90;99.90;;;;;;5033731;28;20033;-67
2023/09/19 09:01:35;;;;;;;2.33;1.20;;;15.90;99.90;;;;;;5015935;28;20080;-68
2023/09/19 09:04:02;;;;;;;1.90;1.27;;;16.00;99.90;;;;;;5015920;28;20052;-67
2023/09/19 09:06:28;;;;;;;2.90;1.10;;;16.00;99.90;;;;;;5033635;28;20053;-67
2023/09/19 09:08:54;;;;;;;1.67;0.90;;;16.00;99.90;;;;;;5033549;28;20048;-67
2023/09/19 09:11:21;;;;;;;1.38;1.02;;;16.00;99.90;;;;;;5033469;28;20045;-68
2023/09/19 09:13:47;;;;;;;2.92;1.20;;;16.00;99.90;;;;;;5033106;28;20037;-67
2023/09/19 09:16:17;;;;;;;1.48;0.93;;;16.00;99.90;;;;;;5033134;28;20416;-67
2023/09/19 09:18:44;;;;;;;2.47;1.33;;;16.10;99.90;;;;;;5033386;28;20469;-67
2023/09/19 09:21:10;;;;;;;2.13;1.25;;;16.20;99.90;;;;;;5015410;28;20146;-67
2023/09/19 09:23:35;;;;;;;2.85;1.45;;;16.20;99.90;;;;;;5033033;28;20037;-67
2023/09/19 09:26:02;;;;;;;2.17;1.05;;;16.20;99.90;;;;;;5015700;28;20120;-67
2023/09/19 09:28:30;;;;;;;1.55;0.90;;;16.30;99.90;;;;;;5033188;28;20033;-68
2023/09/19 09:30:58;;;;;;;2.00;1.13;;;16.40;99.90;;;;;;5015434;28;20049;-67
2023/09/19 09:33:24;;;;;;;2.53;1.33;;;16.50;99.90;;;;;;5015402;28;20041;-67
2023/09/19 09:35:56;;;;;;;2.58;1.42;;;16.70;99.90;;;;;;5031994;28;20120;-67
2023/09/19 09:38:27;;;;;;;1.92;1.17;;;16.60;99.90;;;;;;5033162;28;20077;-67
2023/09/19 09:43:28;;;;;;;2.33;0.98;;;16.70;99.90;;;;;;5033162;28;20049;-66
2023/09/19 09:49:18;;;;;;;2.03;1.27;;;16.80;99.30;;;;;;5033047;28;20401;-66
2023/09/19 09:51:59;;;;;;;3.58;1.15;;;16.90;99.90;;;;;;5032969;28;20041;-66
2023/09/19 09:54:38;;;;;;;;;;;17.00;99.90;;;;;;5036563;28;20040;-67
2023/09/19 09:57:20;;;;;;;3.22;1.00;;;17.50;91.80;;;;;;5037171;28;20007;-66
2023/09/19 10:02:42;;;;;;;2.30;0.90;;;17.10;94.90;;;;;;5036984;28;20052;-66
2023/09/19 10:05:28;;;;;;;4.43;1.80;;;17.00;93.90;;;;;;5036701;28;20045;-67
2023/09/19 10:07:56;;;;;;;3.40;1.35;;;17.20;95.20;;;;;;5036927;28;20042;-66
2023/09/19 10:10:45;;;;;;;2.25;1.00;;;17.30;96.40;;;;;;5036928;28;20041;-67
2023/09/19 10:13:13;;;;;;;3.00;1.40;;;17.30;95.20;;;;;;5036818;28;20033;-68
2023/09/19 10:15:42;;;;;;;1.60;1.20;;;17.30;93.80;;;;;;5036421;28;20048;-66
2023/09/19 10:18:17;;;;;;;2.17;1.45;;;17.30;93.90;;;;;;5036595;28;20535;-66
2023/09/19 10:20:45;;;;;;;1.73;1.20;;;17.40;93.00;;;;;;5036542;28;20452;-66
2023/09/19 10:23:14;;;;;;;1.65;1.05;;;17.50;90.30;;;;;;5036509;28;20382;-67
2023/09/19 10:25:42;;;;;;;1.15;0.82;;;17.70;92.20;;;;;;5036394;28;20045;-66
2023/09/19 10:28:13;;;;;;;1.33;0.93;;;17.60;86.50;;;;;;5036327;28;20477;-67
2023/09/19 10:30:45;;;;;;;1.48;1.02;;;17.70;80.40;;;;;;5036041;28;20038;-66
2023/09/19 10:33:15;;;;;;;1.55;1.17;;;17.80;69.80;;;;;;5018208;28;20048;-67
2023/09/19 10:35:47;;;;;;;2.10;1.48;;;18.00;64.10;;;;;;5035989;28;20090;-65
2023/09/19 10:38:14;;;;;;;1.45;1.10;;;17.90;61.80;;;;;;5036055;28;20408;-65
2023/09/19 10:40:43;;;;;;;2.17;1.38;;;17.90;70.70;;;;;;5036226;28;20404;-66
2023/09/19 10:43:12;;;;;;;3.70;1.35;;;18.00;65.80;;;;;;5036021;28;20083;-68
2023/09/19 10:45:40;;;;;;;4.07;1.63;;;18.00;28.10;;;;;;5036226;28;20495;-69
2023/09/19 10:48:07;;;;;;;2.15;1.10;;;18.30;40.20;;;;;;5036190;28;20044;-69
2023/09/19 10:50:49;;;;;;;1.45;1.02;;;18.00;25.20;;;;;;5018167;28;20461;-68
2023/09/19 10:53:16;;;;;;;2.80;1.50;;;17.90;30.00;;;;;;5036092;28;20038;-70
2023/09/19 10:55:53;;;;;;;1.55;1.10;;;17.90;47.40;;;;;;5036041;28;20434;-69
2023/09/19 10:58:34;;;;;;;1.90;1.08;;;17.80;25.00;;;;;;5036051;28;20386;-69
2023/09/19 11:01:05;;;;;;;1.33;0.95;;;17.80;43.40;;;;;;5035950;28;20043;-70
2023/09/19 11:03:32;;;;;;;1.00;0.90;;;17.90;52.20;;;;;;5035722;28;20493;-64
2023/09/19 11:06:18;;;;;;;1.50;1.40;;;17.90;30.90;;;;;;5017656;28;20048;-64
2023/09/19 11:08:57;;;;;;;1.55;1.17;;;17.90;26.50;;;;;;5018009;28;20041;-65
2023/09/19 11:11:41;;;;;;;3.30;1.50;;;17.90;37.30;;;;;;5035662;28;20473;-64
2023/09/19 11:14:29;;;;;;;1.83;1.17;;;18.70;26.00;;;;;;5017641;28;20136;-64
2023/09/19 11:17:07;;;;;;;2.25;1.30;;;18.00;9.70;;;;;;5035210;28;20141;-64
2023/09/19 11:20:24;;;;;;;1.77;1.00;;;18.00;1.00;;;;;;5035629;28;20508;-65
2023/09/19 11:22:58;;;;;;;1.85;1.10;;;18.10;9.50;;;;;;5024315;28;20049;-64
2023/09/19 11:25:30;;;;;;;1.08;0.80;;;18.10;11.00;;;;;;5035515;28;20440;-64
2023/09/19 11:28:26;;;;;;;1.55;1.15;;;18.10;16.40;;;;;;5035452;28;20451;-64
2023/09/19 11:30:58;;;;;;;0.77;0.63;;;18.10;4.50;;;;;;5035354;28;20095;-64
2023/09/19 11:36:04;;;;;;;3.13;1.50;;;18.10;10.20;;;;;;5035260;28;20095;-65
2023/09/19 11:38:43;;;;;;;2.88;1.20;;;18.20;3.60;;;;;;5035279;28;20041;-64
2023/09/19 11:41:21;;;;;;;1.88;1.33;;;18.20;25.10;;;;;;5035189;28;20444;-65
2023/09/19 11:43:48;;;;;;;2.83;1.27;;;18.30;24.90;;;;;;5035132;28;20116;-64
2023/09/19 11:46:16;;;;;;;1.13;1.00;;;18.30;20.10;;;;;;5035199;28;20037;-64
2023/09/19 11:48:44;;;;;;;1.40;1.10;;;18.30;1.50;;;;;;5034664;28;20038;-64
2023/09/19 11:51:15;;;;;;;3.13;1.40;;;18.60;1.00;;;;;;5034966;28;20069;-65
2023/09/19 11:53:44;;;;;;;1.38;0.80;;;18.20;15.40;;;;;;5035048;28;20366;-70
2023/09/19 11:56:10;;;;;;;1.40;1.10;;;18.30;16.80;;;;;;5034703;28;20124;-70
2023/09/19 11:58:37;;;;;;;2.35;1.15;;;18.30;14.70;;;;;;5034611;28;20069;-70
2023/09/19 12:01:08;;;;;;;2.42;1.20;;;18.30;9.50;;;;;;5034825;28;20030;-70
2023/09/19 12:03:41;;;;;;;1.77;1.25;;;18.50;19.80;;;;;;5034513;28;20052;-71
2023/09/19 12:06:13;;;;;;;2.60;1.40;;;18.30;6.20;;;;;;5034748;28;20477;-70
2023/09/19 12:08:39;;;;;;;3.20;1.50;;;18.30;13.80;;;;;;5034344;28;20448;-70
2023/09/19 12:11:10;;;;;;;2.55;1.40;;;18.40;17.20;;;;;;5034368;28;20065;-69
2023/09/19 12:13:38;;;;;;;1.30;0.90;;;18.40;21.50;;;;;;5016541;28;20128;-67
2023/09/19 12:16:14;;;;;;;2.08;0.95;;;18.30;11.00;;;;;;5033356;28;20057;-67
2023/09/19 12:18:42;;;;;;;1.45;1.00;;;18.20;1.00;;;;;;5034094;28;20045;-67
2023/09/19 12:21:20;;;;;;;1.48;1.17;;;18.20;13.90;;;;;;5034217;28;20037;-67
2023/09/19 12:24:04;;;;;;;1.80;1.27;;;18.50;8.70;;;;;;5034228;28;20533;-67
2023/09/19 12:26:37;;;;;;;2.33;1.20;;;18.10;4.90;;;;;;5034179;28;20060;-67
2023/09/19 12:29:04;;;;;;;0.98;0.88;;;18.10;4.70;;;;;;5034113;28;20033;-67
2023/09/19 12:31:36;;;;;;;1.40;1.17;;;17.90;23.90;;;;;;5034024;28;20045;-67
2023/09/19 12:34:02;;;;;;;2.55;1.15;;;17.80;27.70;;;;;;5033779;28;20033;-66
2023/09/19 12:36:30;;;;;;;1.60;0.98;;;17.90;27.20;;;;;;5033709;28;20049;-67
2023/09/19 12:38:59;;;;;;;1.67;1.20;;;18.20;22.90;;;;;;5033788;28;20041;-67
2023/09/19 12:41:25;;;;;;;1.10;1.00;;;17.90;32.30;;;;;;5034080;28;20089;-66
2023/09/19 12:43:54;;;;;;;2.80;1.10;;;17.90;36.90;;;;;;5034026;28;20159;-67
2023/09/19 12:46:25;;;;;;;2.42;1.23;;;17.80;36.50;;;;;;5016024;28;20146;-67
2023/09/19 12:49:17;;;;;;;1.35;0.90;;;17.90;39.60;;;;;;5033561;28;20044;-67
2023/09/19 12:51:43;;;;;;;5.85;1.08;;;18.00;23.50;;;;;;5033434;28;20048;-67
2023/09/19 12:54:14;;;;;;;1.90;1.15;;;18.00;30.80;;;;;;5033378;28;20116;-67
2023/09/19 12:56:45;;;;;;;2.33;1.25;;;18.30;27.60;;;;;;5033413;28;20038;-67
2023/09/19 12:59:13;;;;;;;1.25;0.70;;;18.10;34.70;;;;;;5033751;28;20051;-67
2023/09/19 13:01:45;;;;;;;1.70;1.00;;;18.10;33.20;;;;;;5015676;28;20412;-67
2023/09/19 13:04:29;;;;;;;1.58;0.98;;;18.00;35.70;;;;;;5033634;28;20051;-67
2023/09/19 13:07:00;;;;;;;1.15;0.90;;;17.90;30.00;;;;;;5033261;28;20048;-66
2023/09/19 13:09:38;;;;;;;2.33;0.90;;;17.80;35.80;;;;;;5033596;28;20421;-65